createdAt,value
2023-04-25T00:01:27.428Z,100365.66
2023-04-25T00:06:26.911Z,100356.78
2023-04-25T00:11:24.468Z,100356.97
2023-04-25T00:16:21.346Z,100353.13
2023-04-25T00:21:20.393Z,100357.19
2023-04-25T00:26:17.837Z,100360.97
2023-04-25T00:31:15.489Z,100361.44
2023-04-25T00:36:12.458Z,100361.63
2023-04-25T00:41:09.378Z,100350.22
2023-04-25T00:46:06.176Z,100345.78
2023-04-25T00:51:03.765Z,100337.94
2023-04-25T00:56:00.408Z,100331.69
2023-04-25T01:00:58.316Z,100323.97
2023-04-25T01:05:55.473Z,100321.03
2023-04-25T01:10:52.841Z,100307.81
2023-04-25T01:15:49.699Z,100304.97
2023-04-25T01:20:46.773Z,100297.50
2023-04-25T01:25:44.262Z,100278.22
2023-04-25T01:30:41.619Z,100271.50
2023-04-25T01:35:38.555Z,100253.94
2023-04-25T01:40:36.548Z,100245.91
2023-04-25T01:45:34.081Z,100241.69
2023-04-25T01:50:30.987Z,100237.94
2023-04-25T01:55:27.759Z,100237.22
2023-04-25T02:00:35.028Z,100234.25
2023-04-25T02:05:35.524Z,100232.06
2023-04-25T02:10:33.054Z,100218.31
2023-04-25T02:15:44.744Z,100220.56
2023-04-25T02:20:46.068Z,100206.94
2023-04-25T02:25:43.481Z,100213.06
2023-04-25T02:30:40.305Z,100218.25
2023-04-25T02:35:37.635Z,100220.19
2023-04-25T02:40:34.241Z,100211.38
2023-04-25T02:45:40.346Z,100201.22
2023-04-25T02:50:37.747Z,100201.00
2023-04-25T02:55:34.780Z,100201.28
2023-04-25T03:00:33.207Z,100192.47
2023-04-25T03:05:29.956Z,100197.38
2023-04-25T03:10:27.603Z,100196.50
2023-04-25T03:15:26.991Z,100202.66
2023-04-25T03:20:23.909Z,100198.56
2023-04-25T03:25:20.705Z,100205.88
2023-04-25T03:30:18.392Z,100203.31
2023-04-25T03:35:15.742Z,100205.63
2023-04-25T03:40:12.583Z,100219.16
2023-04-25T03:45:35.792Z,100204.47
2023-04-25T03:50:32.562Z,100223.03
2023-04-25T03:55:29.627Z,100212.91
2023-04-25T04:00:27.189Z,100219.81
2023-04-25T04:05:28.006Z,100229.44
2023-04-25T04:10:27.082Z,100223.13
2023-04-25T04:15:25.857Z,100230.13
2023-04-25T04:20:26.505Z,100228.41
2023-04-25T04:25:23.408Z,100226.97
2023-04-25T04:30:58.827Z,100224.00
2023-04-25T04:35:57.875Z,100240.34
2023-04-25T04:40:54.855Z,100224.59
2023-04-25T04:46:13.806Z,100227.41
2023-04-25T04:51:23.692Z,100223.81
2023-04-25T04:56:57.815Z,100229.69
2023-04-25T05:02:20.723Z,100222.19
2023-04-25T05:07:27.405Z,100222.25
2023-04-25T05:12:36.368Z,100216.44
2023-04-25T05:17:44.423Z,100212.84
2023-04-25T05:22:42.386Z,100224.31
2023-04-25T05:27:44.000Z,100223.22
2023-04-25T05:32:59.278Z,100232.28
2023-04-25T05:37:58.283Z,100224.41
2023-04-25T05:43:10.302Z,100233.22
2023-04-25T05:48:28.790Z,100229.00
2023-04-25T05:53:46.577Z,100220.13
2023-04-25T05:58:46.625Z,100220.16
2023-04-25T06:03:49.258Z,100219.56
2023-04-25T06:08:48.756Z,100236.22
2023-04-25T06:13:45.623Z,100229.31
2023-04-25T06:18:42.784Z,100232.19
2023-04-25T06:23:42.928Z,100220.31
2023-04-25T06:28:43.546Z,100220.59
2023-04-25T06:33:40.657Z,100219.59
2023-04-25T06:38:38.828Z,100215.81
2023-04-25T06:43:36.476Z,100211.50
2023-04-25T06:48:58.568Z,100211.59
2023-04-25T06:54:09.977Z,100208.41
2023-04-25T06:59:36.905Z,100205.31
2023-04-25T07:05:08.603Z,100209.66
2023-04-25T07:12:09.238Z,100218.63
2023-04-25T07:16:28.047Z,100221.06
2023-04-25T07:21:46.225Z,100225.78
2023-04-25T07:26:51.451Z,100221.91
2023-04-25T07:44:06.373Z,100213.81
2023-04-25T07:49:44.743Z,100214.50
2023-04-25T07:54:48.868Z,100190.78
2023-04-25T08:00:36.196Z,100202.78
2023-04-25T08:06:43.746Z,100209.41
2023-04-25T08:11:51.449Z,100207.16
2023-04-25T08:22:39.743Z,100215.25
2023-04-25T08:40:59.239Z,100226.63
2023-04-25T08:46:13.421Z,100231.94
2023-04-25T08:51:58.926Z,100222.09
2023-04-25T08:56:58.038Z,100217.06
2023-04-25T09:01:56.478Z,100219.97
2023-04-25T09:06:53.987Z,100185.25
2023-04-25T09:11:51.327Z,100212.78
2023-04-25T09:17:03.963Z,100201.00
2023-04-25T09:22:13.239Z,100202.13
2023-04-25T09:27:10.857Z,100205.53
2023-04-25T09:32:15.029Z,100194.13
2023-04-25T09:37:13.419Z,100183.63
2023-04-25T09:42:46.049Z,100186.81
2023-04-25T09:47:44.595Z,100185.03
2023-04-25T09:53:03.646Z,100179.06
2023-04-25T09:58:06.190Z,100180.25
2023-04-25T10:03:04.595Z,100179.06
2023-04-25T10:08:23.888Z,100177.19
2023-04-25T10:13:21.269Z,100171.66
2023-04-25T10:18:21.610Z,100166.41
2023-04-25T10:23:18.805Z,100165.28
2023-04-25T10:28:21.262Z,100163.97
2023-04-25T10:33:18.830Z,100151.41
2023-04-25T10:38:16.026Z,100158.47
2023-04-25T10:43:32.824Z,100158.16
2023-04-25T10:48:31.432Z,100158.25
2023-04-25T10:53:31.831Z,100155.75
2023-04-25T10:58:28.777Z,100149.34
2023-04-25T11:03:26.232Z,100147.03
2023-04-25T11:08:31.000Z,100132.16
2023-04-25T11:13:30.678Z,100131.19
2023-04-25T11:18:28.044Z,100135.63
2023-04-25T11:23:25.497Z,100140.78
2023-04-25T11:28:25.592Z,100132.91
2023-04-25T11:33:24.619Z,100131.34
2023-04-25T11:38:22.574Z,100133.75
2023-04-25T11:43:21.846Z,100131.22
2023-04-25T11:48:19.494Z,100136.56
2023-04-25T11:53:18.977Z,100127.44
2023-04-25T11:58:16.100Z,100129.00
2023-04-25T12:03:13.903Z,100116.09
2023-04-25T12:08:16.218Z,100122.84
2023-04-25T12:13:20.255Z,100111.81
2023-04-25T12:18:21.809Z,100099.53
2023-04-25T12:23:25.944Z,100092.03
2023-04-25T12:28:24.285Z,100079.47
2023-04-25T12:33:25.918Z,100061.78
2023-04-25T12:38:29.539Z,100068.16
2023-04-25T12:43:34.177Z,100058.97
2023-04-25T12:48:34.477Z,100057.53
2023-04-25T12:53:32.257Z,100054.03
2023-04-25T12:58:30.246Z,100045.09
2023-04-25T13:03:27.422Z,100023.13
2023-04-25T13:08:27.499Z,100018.50
2023-04-25T13:13:24.446Z,100019.47
2023-04-25T13:18:21.508Z,100029.28
2023-04-25T13:23:18.336Z,100033.13
2023-04-25T13:28:16.533Z,100001.78
2023-04-25T13:33:13.486Z,100024.19
2023-04-25T13:38:10.407Z,100032.81
2023-04-25T13:43:07.048Z,100039.06
2023-04-25T13:48:04.845Z,100049.78
2023-04-25T13:53:01.832Z,100043.84
2023-04-25T13:57:58.900Z,100037.72
2023-04-25T14:02:56.110Z,100039.50
2023-04-25T14:07:53.958Z,100034.00
2023-04-25T14:12:50.694Z,100031.97
2023-04-25T14:17:48.924Z,100020.59
2023-04-25T14:22:45.937Z,100015.06
2023-04-25T14:27:44.460Z,100010.19
2023-04-25T14:32:43.767Z,100007.31
2023-04-25T14:37:40.694Z,100010.88
2023-04-25T14:42:39.707Z,100003.63
2023-04-25T14:47:38.870Z,100007.00
2023-04-25T14:52:35.790Z,100029.13
2023-04-25T14:57:32.614Z,100029.19
2023-04-25T15:02:29.517Z,100037.38
2023-04-25T15:07:27.154Z,100047.38
2023-04-25T15:12:24.196Z,100054.88
2023-04-25T15:17:20.863Z,100073.97
2023-04-25T15:22:20.781Z,100076.06
2023-04-25T15:27:18.584Z,100075.59
2023-04-25T15:32:15.634Z,100074.88
2023-04-25T15:37:12.406Z,100069.38
2023-04-25T15:42:09.079Z,100068.09
2023-04-25T15:47:06.476Z,100079.22
2023-04-25T15:52:03.288Z,100068.84
2023-04-25T15:57:00.145Z,100066.63
2023-04-25T16:01:57.086Z,100062.97
2023-04-25T16:06:54.673Z,100059.75
2023-04-25T16:11:51.596Z,100050.72
2023-04-25T16:16:48.344Z,100044.97
2023-04-25T16:21:45.266Z,100056.56
2023-04-25T16:26:43.013Z,100047.47
2023-04-25T16:31:39.775Z,100039.50
2023-04-25T16:36:36.622Z,100033.91
2023-04-25T16:41:33.605Z,100032.28
2023-04-25T16:46:31.085Z,100029.19
2023-04-25T16:51:31.944Z,100015.38
2023-04-25T16:56:28.606Z,100045.91
2023-04-25T17:01:34.522Z,100046.16
2023-04-25T17:06:31.379Z,100059.72
2023-04-25T17:11:28.045Z,100059.97
2023-04-25T17:16:33.842Z,100060.97
2023-04-25T17:21:31.435Z,100061.84
2023-04-25T17:26:28.127Z,100057.22
2023-04-25T17:31:26.406Z,100067.78
2023-04-25T17:36:23.193Z,100076.06
2023-04-25T17:41:20.598Z,100083.53
2023-04-25T17:46:17.322Z,100094.69
2023-04-25T17:51:14.182Z,100108.41
2023-04-25T17:56:25.430Z,100112.34
2023-04-25T18:01:24.363Z,100094.84
2023-04-25T18:06:21.070Z,100125.41
2023-04-25T18:11:17.848Z,100127.03
2023-04-25T18:16:15.372Z,100131.63
2023-04-25T18:21:12.837Z,100133.50
2023-04-25T18:26:09.712Z,100135.03
2023-04-25T18:31:06.417Z,100144.63
2023-04-25T18:36:03.541Z,100145.09
2023-04-25T18:41:18.403Z,100150.75
2023-04-25T18:46:21.842Z,100153.31
2023-04-25T18:51:18.824Z,100145.88
2023-04-25T18:56:16.791Z,100148.22
2023-04-25T19:01:13.519Z,100157.16
2023-04-25T19:06:10.568Z,100151.25
2023-04-25T19:11:20.622Z,100147.66
2023-04-25T19:16:18.758Z,100157.66
2023-04-25T19:21:15.730Z,100153.66
2023-04-25T19:26:12.554Z,100157.53
2023-04-25T19:31:11.394Z,100150.94
2023-04-25T19:36:08.705Z,100155.84
2023-04-25T19:41:05.843Z,100151.41
2023-04-25T19:46:02.732Z,100153.50
2023-04-25T19:50:59.344Z,100146.72
2023-04-25T19:55:58.420Z,100148.25
2023-04-25T20:00:57.317Z,100142.38
2023-04-25T20:05:54.267Z,100148.06
2023-04-25T20:10:50.786Z,100133.72
2023-04-25T20:15:50.439Z,100144.06
2023-04-25T20:20:47.157Z,100144.84
2023-04-25T20:25:43.764Z,100132.34
2023-04-25T20:30:41.184Z,100141.44
2023-04-25T20:35:38.465Z,100132.06
2023-04-25T20:40:35.053Z,100127.75
2023-04-25T20:45:33.201Z,100122.41
2023-04-25T20:50:29.852Z,100115.94
2023-04-25T20:55:27.260Z,100114.34
2023-04-25T21:00:27.011Z,100104.75
2023-04-25T21:05:24.010Z,100112.72
2023-04-25T21:10:23.049Z,100110.75
2023-04-25T21:15:24.210Z,100102.63
2023-04-25T21:20:21.576Z,100100.94
2023-04-25T21:25:20.054Z,100104.38
2023-04-25T21:30:17.137Z,100106.78
2023-04-25T21:35:14.859Z,100101.00
2023-04-25T21:40:12.346Z,100098.94
2023-04-25T21:45:09.721Z,100090.28
2023-04-25T21:50:07.442Z,100091.22
2023-04-25T21:55:05.743Z,100083.66
2023-04-25T22:00:03.650Z,100095.59
2023-04-25T22:05:02.283Z,100088.47
2023-04-25T22:09:59.128Z,100092.94
2023-04-25T22:14:56.522Z,100088.97
2023-04-25T22:19:53.245Z,100095.38
2023-04-25T22:24:49.982Z,100096.22
2023-04-25T22:29:47.302Z,100093.66
2023-04-25T22:34:45.048Z,100089.38
2023-04-25T22:39:41.732Z,100093.03
2023-04-25T22:44:38.317Z,100092.88
2023-04-25T22:49:34.848Z,100084.81
2023-04-25T22:54:32.067Z,100081.88
2023-04-25T22:59:28.991Z,100082.69
2023-04-25T23:04:25.870Z,100088.56
2023-04-25T23:09:23.166Z,100087.50
2023-04-25T23:14:23.249Z,100078.03
2023-04-25T23:19:19.818Z,100079.44
2023-04-25T23:24:16.602Z,100075.03
2023-04-25T23:29:13.211Z,100074.47
2023-04-25T23:34:13.120Z,100065.22
2023-04-25T23:39:09.881Z,100066.63
2023-04-25T23:44:08.447Z,100063.41
2023-04-25T23:49:05.255Z,100074.19
2023-04-25T23:54:05.317Z,100066.13
2023-04-25T23:59:03.088Z,100060.69
